sensor_id;sensor_type;location;lat;lon;timestamp;pressure;altitude;pressure_sealevel;temperature;humidity
39363;BME280;25088;43.238;23.110;2024-03-08T00:01:06;96801.91;;;5.93;88.21
39363;BME280;25088;43.238;23.110;2024-03-08T00:03:32;96787.53;;;5.92;88.28
39363;BME280;25088;43.238;23.110;2024-03-08T00:05:58;96793.34;;;5.96;88.21
39363;BME280;25088;43.238;23.110;2024-03-08T00:08:26;96808.44;;;6.10;86.41
39363;BME280;25088;43.238;23.110;2024-03-08T00:10:51;96802.19;;;6.10;85.65
39363;BME280;25088;43.238;23.110;2024-03-08T00:13:19;96803.97;;;5.98;87.08
39363;BME280;25088;43.238;23.110;2024-03-08T00:15:45;96805.75;;;5.79;87.73
39363;BME280;25088;43.238;23.110;2024-03-08T00:18:11;96800.75;;;5.76;88.98
39363;BME280;25088;43.238;23.110;2024-03-08T00:20:36;96795.19;;;5.64;89.57
39363;BME280;25088;43.238;23.110;2024-03-08T00:23:02;96804.72;;;5.73;89.54
39363;BME280;25088;43.238;23.110;2024-03-08T00:25:27;96808.53;;;5.65;88.32
39363;BME280;25088;43.238;23.110;2024-03-08T00:27:53;96804.09;;;5.71;87.67
39363;BME280;25088;43.238;23.110;2024-03-08T00:30:22;96798.44;;;5.79;87.84
39363;BME280;25088;43.238;23.110;2024-03-08T00:32:48;96800.31;;;5.79;89.22
39363;BME280;25088;43.238;23.110;2024-03-08T00:35:14;96795.59;;;5.67;88.57
39363;BME280;25088;43.238;23.110;2024-03-08T00:37:40;96786.28;;;5.57;88.43
39363;BME280;25088;43.238;23.110;2024-03-08T00:40:07;96786.56;;;5.42;89.46
39363;BME280;25088;43.238;23.110;2024-03-08T00:42:34;96785.19;;;5.33;88.30
39363;BME280;25088;43.238;23.110;2024-03-08T00:45:00;96788.06;;;5.38;88.68
39363;BME280;25088;43.238;23.110;2024-03-08T00:47:25;96793.03;;;5.41;88.86
39363;BME280;25088;43.238;23.110;2024-03-08T00:49:51;96788.97;;;5.57;89.98
39363;BME280;25088;43.238;23.110;2024-03-08T00:52:16;96792.91;;;5.61;90.63
39363;BME280;25088;43.238;23.110;2024-03-08T00:54:43;96775.81;;;5.67;90.20
39363;BME280;25088;43.238;23.110;2024-03-08T00:57:09;96774.25;;;5.53;90.04
39363;BME280;25088;43.238;23.110;2024-03-08T00:59:34;96786.50;;;5.55;89.12
39363;BME280;25088;43.238;23.110;2024-03-08T01:02:00;96785.63;;;5.61;88.14
39363;BME280;25088;43.238;23.110;2024-03-08T01:04:27;96776.81;;;5.73;88.47
39363;BME280;25088;43.238;23.110;2024-03-08T01:06:56;96763.72;;;5.38;88.11
39363;BME280;25088;43.238;23.110;2024-03-08T01:09:26;96786.66;;;5.29;89.90
39363;BME280;25088;43.238;23.110;2024-03-08T01:11:52;96766.06;;;5.21;90.62
39363;BME280;25088;43.238;23.110;2024-03-08T01:14:19;96786.03;;;5.27;91.47
39363;BME280;25088;43.238;23.110;2024-03-08T01:16:48;96761.25;;;5.30;90.10
39363;BME280;25088;43.238;23.110;2024-03-08T01:19:13;96766.44;;;5.31;90.08
39363;BME280;25088;43.238;23.110;2024-03-08T01:21:39;96784.63;;;5.56;88.52
39363;BME280;25088;43.238;23.110;2024-03-08T01:24:04;96777.78;;;5.53;88.74
39363;BME280;25088;43.238;23.110;2024-03-08T01:26:30;96766.22;;;5.33;90.26
39363;BME280;25088;43.238;23.110;2024-03-08T01:28:56;96772.41;;;5.78;88.36
39363;BME280;25088;43.238;23.110;2024-03-08T01:31:21;96769.78;;;5.96;86.72
39363;BME280;25088;43.238;23.110;2024-03-08T01:33:46;96779.25;;;5.81;87.10
39363;BME280;25088;43.238;23.110;2024-03-08T01:36:12;96787.91;;;5.64;89.31
39363;BME280;25088;43.238;23.110;2024-03-08T01:38:41;96775.88;;;5.92;87.48
39363;BME280;25088;43.238;23.110;2024-03-08T01:41:07;96779.09;;;6.07;86.33
39363;BME280;25088;43.238;23.110;2024-03-08T01:43:32;96767.53;;;6.18;85.00
39363;BME280;25088;43.238;23.110;2024-03-08T01:45:58;96757.66;;;6.24;84.01
39363;BME280;25088;43.238;23.110;2024-03-08T01:48:28;96773.81;;;6.37;83.75
39363;BME280;25088;43.238;23.110;2024-03-08T01:50:55;96768.91;;;6.28;84.56
39363;BME280;25088;43.238;23.110;2024-03-08T01:53:24;96763.59;;;6.14;85.20
39363;BME280;25088;43.238;23.110;2024-03-08T01:55:49;96767.59;;;6.12;85.44
39363;BME280;25088;43.238;23.110;2024-03-08T01:58:17;96750.44;;;6.18;84.96
39363;BME280;25088;43.238;23.110;2024-03-08T02:00:46;96772.72;;;6.20;85.15
39363;BME280;25088;43.238;23.110;2024-03-08T02:03:17;96765.47;;;6.14;85.33
39363;BME280;25088;43.238;23.110;2024-03-08T02:05:43;96769.59;;;6.16;85.23
39363;BME280;25088;43.238;23.110;2024-03-08T02:08:09;96744.72;;;6.01;85.33
39363;BME280;25088;43.238;23.110;2024-03-08T02:10:40;96748.81;;;6.10;85.06
39363;BME280;25088;43.238;23.110;2024-03-08T02:13:05;96763.97;;;6.18;84.33
39363;BME280;25088;43.238;23.110;2024-03-08T02:16:09;96756.41;;;6.27;84.35
39363;BME280;25088;43.238;23.110;2024-03-08T02:18:35;96753.41;;;6.10;84.14
39363;BME280;25088;43.238;23.110;2024-03-08T02:21:03;96753.81;;;6.13;84.80
39363;BME280;25088;43.238;23.110;2024-03-08T02:23:29;96757.94;;;6.16;84.85
39363;BME280;25088;43.238;23.110;2024-03-08T02:25:57;96760.00;;;5.95;84.98
39363;BME280;25088;43.238;23.110;2024-03-08T02:28:23;96761.88;;;5.95;85.57
39363;BME280;25088;43.238;23.110;2024-03-08T02:30:50;96748.13;;;5.90;86.04
39363;BME280;25088;43.238;23.110;2024-03-08T02:33:20;96762.94;;;5.94;87.11
39363;BME280;25088;43.238;23.110;2024-03-08T02:35:45;96763.38;;;5.84;87.06
39363;BME280;25088;43.238;23.110;2024-03-08T02:38:14;96764.22;;;5.85;87.38
39363;BME280;25088;43.238;23.110;2024-03-08T02:40:42;96754.44;;;5.84;87.30
39363;BME280;25088;43.238;23.110;2024-03-08T02:43:09;96764.63;;;5.82;87.78
39363;BME280;25088;43.238;23.110;2024-03-08T02:45:34;96769.81;;;5.90;88.05
39363;BME280;25088;43.238;23.110;2024-03-08T02:48:00;96757.13;;;5.84;87.98
39363;BME280;25088;43.238;23.110;2024-03-08T02:50:25;96747.03;;;5.73;88.04
39363;BME280;25088;43.238;23.110;2024-03-08T02:52:51;96764.94;;;5.74;88.58
39363;BME280;25088;43.238;23.110;2024-03-08T02:55:16;96763.13;;;5.61;89.73
39363;BME280;25088;43.238;23.110;2024-03-08T02:57:42;96772.34;;;5.85;89.27
39363;BME280;25088;43.238;23.110;2024-03-08T03:00:09;96751.22;;;5.68;89.29
39363;BME280;25088;43.238;23.110;2024-03-08T03:02:35;96771.28;;;5.92;88.39
39363;BME280;25088;43.238;23.110;2024-03-08T03:05:01;96764.34;;;5.96;88.10
39363;BME280;25088;43.238;23.110;2024-03-08T03:07:37;96764.38;;;5.90;88.41
39363;BME280;25088;43.238;23.110;2024-03-08T03:10:03;96765.44;;;5.89;88.72
39363;BME280;25088;43.238;23.110;2024-03-08T03:12:29;96769.41;;;5.93;88.70
39363;BME280;25088;43.238;23.110;2024-03-08T03:14:55;96762.22;;;6.05;88.30
39363;BME280;25088;43.238;23.110;2024-03-08T03:17:23;96764.31;;;6.03;88.49
39363;BME280;25088;43.238;23.110;2024-03-08T03:19:48;96771.41;;;6.04;88.55
39363;BME280;25088;43.238;23.110;2024-03-08T03:22:14;96760.03;;;5.89;88.00
39363;BME280;25088;43.238;23.110;2024-03-08T03:24:41;96769.22;;;5.81;88.26
39363;BME280;25088;43.238;23.110;2024-03-08T03:27:07;96780.03;;;5.88;88.73
39363;BME280;25088;43.238;23.110;2024-03-08T03:29:39;96785.44;;;5.94;87.75
39363;BME280;25088;43.238;23.110;2024-03-08T03:32:08;96783.59;;;5.82;88.40
39363;BME280;25088;43.238;23.110;2024-03-08T03:34:34;96773.81;;;5.81;88.36
39363;BME280;25088;43.238;23.110;2024-03-08T03:37:03;96776.09;;;5.84;88.83
39363;BME280;25088;43.238;23.110;2024-03-08T03:39:29;96779.66;;;5.84;88.95
39363;BME280;25088;43.238;23.110;2024-03-08T03:41:58;96767.19;;;5.77;88.96
39363;BME280;25088;43.238;23.110;2024-03-08T03:44:24;96779.81;;;5.89;89.16
39363;BME280;25088;43.238;23.110;2024-03-08T03:46:50;96769.88;;;5.83;88.84
39363;BME280;25088;43.238;23.110;2024-03-08T03:49:18;96766.53;;;5.81;89.65
39363;BME280;25088;43.238;23.110;2024-03-08T03:51:43;96772.44;;;5.71;90.17
39363;BME280;25088;43.238;23.110;2024-03-08T03:54:10;96768.94;;;5.64;90.70
39363;BME280;25088;43.238;23.110;2024-03-08T03:56:35;96777.41;;;5.75;91.19
39363;BME280;25088;43.238;23.110;2024-03-08T03:59:01;96772.22;;;5.73;91.58
39363;BME280;25088;43.238;23.110;2024-03-08T04:01:26;96762.34;;;5.92;90.05
39363;BME280;25088;43.238;23.110;2024-03-08T04:03:52;96763.28;;;5.73;91.42
39363;BME280;25088;43.238;23.110;2024-03-08T04:06:17;96779.88;;;5.83;90.25
39363;BME280;25088;43.238;23.110;2024-03-08T04:08:43;96783.06;;;5.73;90.94
39363;BME280;25088;43.238;23.110;2024-03-08T04:11:08;96774.44;;;5.51;93.30
39363;BME280;25088;43.238;23.110;2024-03-08T04:13:34;96785.91;;;5.53;92.69
39363;BME280;25088;43.238;23.110;2024-03-08T04:16:01;96778.44;;;5.49;93.45
39363;BME280;25088;43.238;23.110;2024-03-08T04:18:27;96794.41;;;5.57;93.30
39363;BME280;25088;43.238;23.110;2024-03-08T04:20:53;96788.59;;;5.85;90.51
39363;BME280;25088;43.238;23.110;2024-03-08T04:23:19;96788.44;;;5.80;90.68
39363;BME280;25088;43.238;23.110;2024-03-08T04:25:44;96794.50;;;5.75;92.05
39363;BME280;25088;43.238;23.110;2024-03-08T04:28:10;96799.50;;;5.78;91.46
39363;BME280;25088;43.238;23.110;2024-03-08T04:30:39;96787.00;;;5.77;91.21
39363;BME280;25088;43.238;23.110;2024-03-08T04:33:05;96802.84;;;5.74;92.13
39363;BME280;25088;43.238;23.110;2024-03-08T04:35:32;96812.94;;;5.60;93.47
39363;BME280;25088;43.238;23.110;2024-03-08T04:37:57;96778.81;;;5.14;94.06
39363;BME280;25088;43.238;23.110;2024-03-08T04:40:23;96804.16;;;5.26;94.89
39363;BME280;25088;43.238;23.110;2024-03-08T04:42:49;96803.47;;;4.86;97.95
39363;BME280;25088;43.238;23.110;2024-03-08T04:45:16;96820.06;;;5.09;97.74
39363;BME280;25088;43.238;23.110;2024-03-08T04:47:42;96820.00;;;5.23;96.30
39363;BME280;25088;43.238;23.110;2024-03-08T04:50:08;96828.59;;;5.06;98.07
39363;BME280;25088;43.238;23.110;2024-03-08T04:52:36;96822.97;;;5.08;97.41
39363;BME280;25088;43.238;23.110;2024-03-08T04:55:02;96816.03;;;5.25;100.00
39363;BME280;25088;43.238;23.110;2024-03-08T04:57:30;96819.47;;;5.84;100.00
39363;BME280;25088;43.238;23.110;2024-03-08T04:59:55;96810.22;;;5.98;97.01
39363;BME280;25088;43.238;23.110;2024-03-08T05:02:21;96792.03;;;5.74;100.00
39363;BME280;25088;43.238;23.110;2024-03-08T05:04:48;96809.28;;;6.36;94.39
39363;BME280;25088;43.238;23.110;2024-03-08T05:07:13;96817.03;;;6.76;88.48
39363;BME280;25088;43.238;23.110;2024-03-08T05:09:38;96822.63;;;6.62;86.95
39363;BME280;25088;43.238;23.110;2024-03-08T05:12:06;96829.94;;;6.37;85.14
39363;BME280;25088;43.238;23.110;2024-03-08T05:14:31;96832.66;;;6.12;85.31
39363;BME280;25088;43.238;23.110;2024-03-08T05:16:57;96822.63;;;6.12;84.87
39363;BME280;25088;43.238;23.110;2024-03-08T05:19:22;96822.16;;;6.15;85.50
39363;BME280;25088;43.238;23.110;2024-03-08T05:21:49;96818.53;;;6.03;85.91
39363;BME280;25088;43.238;23.110;2024-03-08T05:24:15;96827.06;;;5.62;88.87
39363;BME280;25088;43.238;23.110;2024-03-08T05:26:41;96836.06;;;5.56;90.30
39363;BME280;25088;43.238;23.110;2024-03-08T05:29:08;96831.94;;;5.47;90.93
39363;BME280;25088;43.238;23.110;2024-03-08T05:31:48;96864.56;;;5.65;91.52
39363;BME280;25088;43.238;23.110;2024-03-08T05:34:15;96849.78;;;5.61;91.20
39363;BME280;25088;43.238;23.110;2024-03-08T05:36:41;96855.69;;;5.51;91.58
39363;BME280;25088;43.238;23.110;2024-03-08T05:39:10;96849.88;;;5.48;91.84
39363;BME280;25088;43.238;23.110;2024-03-08T05:41:38;96867.13;;;5.53;92.23
39363;BME280;25088;43.238;23.110;2024-03-08T05:44:03;96868.63;;;5.49;92.40
39363;BME280;25088;43.238;23.110;2024-03-08T05:46:29;96858.59;;;5.50;93.04
39363;BME280;25088;43.238;23.110;2024-03-08T05:48:55;96837.91;;;5.24;93.53
39363;BME280;25088;43.238;23.110;2024-03-08T05:51:20;96854.19;;;5.55;92.92
39363;BME280;25088;43.238;23.110;2024-03-08T05:53:48;96868.19;;;5.52;92.28
39363;BME280;25088;43.238;23.110;2024-03-08T05:56:14;96870.44;;;5.55;92.45
39363;BME280;25088;43.238;23.110;2024-03-08T05:58:39;96889.59;;;5.60;92.21
39363;BME280;25088;43.238;23.110;2024-03-08T06:01:05;96853.84;;;5.45;91.84
39363;BME280;25088;43.238;23.110;2024-03-08T06:03:33;96892.47;;;5.65;91.45
39363;BME280;25088;43.238;23.110;2024-03-08T06:05:59;96884.22;;;5.54;91.82
39363;BME280;25088;43.238;23.110;2024-03-08T06:08:24;96898.19;;;5.51;92.90
39363;BME280;25088;43.238;23.110;2024-03-08T06:10:55;96889.84;;;5.52;92.88
39363;BME280;25088;43.238;23.110;2024-03-08T06:13:21;96902.09;;;5.61;92.87
39363;BME280;25088;43.238;23.110;2024-03-08T06:15:46;96898.78;;;5.59;92.91
39363;BME280;25088;43.238;23.110;2024-03-08T06:18:12;96900.00;;;5.63;92.68
39363;BME280;25088;43.238;23.110;2024-03-08T06:20:37;96899.75;;;5.20;94.32
39363;BME280;25088;43.238;23.110;2024-03-08T06:23:03;96905.25;;;5.58;93.14
39363;BME280;25088;43.238;23.110;2024-03-08T06:25:28;96910.81;;;5.70;92.76
39363;BME280;25088;43.238;23.110;2024-03-08T06:27:54;96911.44;;;5.65;93.07
39363;BME280;25088;43.238;23.110;2024-03-08T06:30:19;96917.03;;;5.19;97.59
39363;BME280;25088;43.238;23.110;2024-03-08T06:32:46;96923.28;;;5.19;98.70
39363;BME280;25088;43.238;23.110;2024-03-08T06:35:11;96896.47;;;4.98;98.84
39363;BME280;25088;43.238;23.110;2024-03-08T06:37:37;96902.28;;;5.08;98.19
39363;BME280;25088;43.238;23.110;2024-03-08T06:40:03;96912.94;;;5.55;95.05
39363;BME280;25088;43.238;23.110;2024-03-08T06:42:29;96898.72;;;5.66;93.20
39363;BME280;25088;43.238;23.110;2024-03-08T06:44:58;96904.97;;;5.73;92.03
39363;BME280;25088;43.238;23.110;2024-03-08T06:47:29;96881.97;;;5.44;92.82
39363;BME280;25088;43.238;23.110;2024-03-08T06:49:55;96911.84;;;5.69;93.00
39363;BME280;25088;43.238;23.110;2024-03-08T06:52:20;96900.84;;;5.64;91.54
39363;BME280;25088;43.238;23.110;2024-03-08T06:54:47;96928.38;;;5.54;92.13
39363;BME280;25088;43.238;23.110;2024-03-08T06:57:12;96924.94;;;5.79;92.14
39363;BME280;25088;43.238;23.110;2024-03-08T06:59:39;96910.38;;;5.73;91.66
39363;BME280;25088;43.238;23.110;2024-03-08T07:02:04;96929.50;;;5.85;91.64
39363;BME280;25088;43.238;23.110;2024-03-08T07:04:30;96918.88;;;5.77;91.52
39363;BME280;25088;43.238;23.110;2024-03-08T07:06:56;96937.81;;;5.90;90.76
39363;BME280;25088;43.238;23.110;2024-03-08T07:09:25;96927.78;;;5.90;90.05
39363;BME280;25088;43.238;23.110;2024-03-08T07:11:51;96918.06;;;5.83;89.71
39363;BME280;25088;43.238;23.110;2024-03-08T07:14:23;96915.16;;;5.71;90.29
39363;BME280;25088;43.238;23.110;2024-03-08T07:16:49;96915.34;;;5.83;90.67
39363;BME280;25088;43.238;23.110;2024-03-08T07:19:15;96921.75;;;5.95;89.56
39363;BME280;25088;43.238;23.110;2024-03-08T07:21:42;96916.78;;;5.85;89.18
39363;BME280;25088;43.238;23.110;2024-03-08T07:24:08;96919.78;;;5.64;90.08
39363;BME280;25088;43.238;23.110;2024-03-08T07:26:43;96933.03;;;5.85;90.40
39363;BME280;25088;43.238;23.110;2024-03-08T07:29:09;96939.47;;;5.91;89.52
39363;BME280;25088;43.238;23.110;2024-03-08T07:31:34;96915.94;;;5.85;89.07
39363;BME280;25088;43.238;23.110;2024-03-08T07:34:20;96941.19;;;5.79;89.57
39363;BME280;25088;43.238;23.110;2024-03-08T07:36:46;96934.91;;;5.85;89.34
39363;BME280;25088;43.238;23.110;2024-03-08T07:39:11;96933.22;;;5.97;89.08
39363;BME280;25088;43.238;23.110;2024-03-08T07:41:38;96932.50;;;5.63;91.19
39363;BME280;25088;43.238;23.110;2024-03-08T07:44:07;96936.53;;;5.99;90.04
39363;BME280;25088;43.238;23.110;2024-03-08T07:46:33;96933.59;;;6.01;89.13
39363;BME280;25088;43.238;23.110;2024-03-08T07:49:02;96948.16;;;6.06;88.49
39363;BME280;25088;43.238;23.110;2024-03-08T07:51:28;96928.63;;;5.91;89.13
39363;BME280;25088;43.238;23.110;2024-03-08T07:53:54;96933.50;;;5.76;90.45
39363;BME280;25088;43.238;23.110;2024-03-08T07:56:20;96922.81;;;5.94;88.56
39363;BME280;25088;43.238;23.110;2024-03-08T07:58:47;96924.88;;;5.99;87.71
39363;BME280;25088;43.238;23.110;2024-03-08T08:01:18;96941.91;;;6.12;87.06
39363;BME280;25088;43.238;23.110;2024-03-08T08:03:44;96911.09;;;6.00;87.01
39363;BME280;25088;43.238;23.110;2024-03-08T08:06:10;96922.41;;;5.84;88.99
39363;BME280;25088;43.238;23.110;2024-03-08T08:08:41;96949.91;;;5.87;90.42
39363;BME280;25088;43.238;23.110;2024-03-08T08:11:07;96946.50;;;6.05;89.70
39363;BME280;25088;43.238;23.110;2024-03-08T08:13:34;96924.66;;;6.00;88.91
39363;BME280;25088;43.238;23.110;2024-03-08T08:16:02;96930.03;;;6.07;88.00
39363;BME280;25088;43.238;23.110;2024-03-08T08:18:27;96928.44;;;5.92;88.35
39363;BME280;25088;43.238;23.110;2024-03-08T08:20:55;96941.03;;;6.18;87.43
39363;BME280;25088;43.238;23.110;2024-03-08T08:23:21;96920.81;;;6.14;86.23
39363;BME280;25088;43.238;23.110;2024-03-08T08:25:47;96922.28;;;6.17;88.51
39363;BME280;25088;43.238;23.110;2024-03-08T08:28:16;96932.19;;;6.30;87.88
39363;BME280;25088;43.238;23.110;2024-03-08T08:30:43;96932.59;;;6.33;86.95
39363;BME280;25088;43.238;23.110;2024-03-08T08:33:08;96932.63;;;6.27;86.47
39363;BME280;25088;43.238;23.110;2024-03-08T08:35:34;96948.09;;;6.19;87.64
39363;BME280;25088;43.238;23.110;2024-03-08T08:37:59;96935.00;;;6.10;88.23
39363;BME280;25088;43.238;23.110;2024-03-08T08:40:25;96937.31;;;6.13;88.90
39363;BME280;25088;43.238;23.110;2024-03-08T08:42:58;96935.81;;;6.17;88.46
39363;BME280;25088;43.238;23.110;2024-03-08T08:45:25;96945.56;;;6.25;87.48
39363;BME280;25088;43.238;23.110;2024-03-08T08:47:50;96941.78;;;6.26;87.04
39363;BME280;25088;43.238;23.110;2024-03-08T08:50:16;96921.50;;;6.03;88.58
39363;BME280;25088;43.238;23.110;2024-03-08T08:52:48;96935.34;;;6.27;87.99
39363;BME280;25088;43.238;23.110;2024-03-08T08:55:13;96938.47;;;6.24;86.58
39363;BME280;25088;43.238;23.110;2024-03-08T08:57:40;96921.38;;;6.23;86.93
39363;BME280;25088;43.238;23.110;2024-03-08T09:00:06;96926.41;;;6.19;87.12
39363;BME280;25088;43.238;23.110;2024-03-08T09:02:33;96927.81;;;6.29;86.75
39363;BME280;25088;43.238;23.110;2024-03-08T09:04:59;96932.47;;;6.15;87.14
39363;BME280;25088;43.238;23.110;2024-03-08T09:07:26;96927.41;;;6.25;86.75
39363;BME280;25088;43.238;23.110;2024-03-08T09:09:53;96929.50;;;5.85;88.94
39363;BME280;25088;43.238;23.110;2024-03-08T09:12:22;96939.06;;;6.32;87.49
39363;BME280;25088;43.238;23.110;2024-03-08T09:14:48;96921.22;;;6.11;88.14
39363;BME280;25088;43.238;23.110;2024-03-08T09:17:13;96907.06;;;6.41;86.06
39363;BME280;25088;43.238;23.110;2024-03-08T09:19:43;96933.50;;;6.52;85.32
39363;BME280;25088;43.238;23.110;2024-03-08T09:22:08;96910.03;;;6.64;83.56
39363;BME280;25088;43.238;23.110;2024-03-08T09:24:34;96917.06;;;6.72;83.79
39363;BME280;25088;43.238;23.110;2024-03-08T09:26:59;96927.75;;;6.67;84.38
39363;BME280;25088;43.238;23.110;2024-03-08T09:29:25;96913.53;;;6.46;83.97
39363;BME280;25088;43.238;23.110;2024-03-08T09:31:51;96922.41;;;6.79;82.41
39363;BME280;25088;43.238;23.110;2024-03-08T09:34:17;96922.66;;;6.77;84.73
39363;BME280;25088;43.238;23.110;2024-03-08T09:36:44;96918.53;;;6.93;83.14
39363;BME280;25088;43.238;23.110;2024-03-08T09:39:09;96919.28;;;7.00;82.39
39363;BME280;25088;43.238;23.110;2024-03-08T09:41:39;96931.59;;;7.03;81.98
39363;BME280;25088;43.238;23.110;2024-03-08T09:44:04;96929.09;;;7.01;79.49
39363;BME280;25088;43.238;23.110;2024-03-08T09:46:30;96911.38;;;6.98;78.83
39363;BME280;25088;43.238;23.110;2024-03-08T09:48:55;96903.63;;;7.02;78.24
39363;BME280;25088;43.238;23.110;2024-03-08T09:51:27;96913.00;;;7.06;77.01
39363;BME280;25088;43.238;23.110;2024-03-08T09:53:53;96914.19;;;6.92;78.80
39363;BME280;25088;43.238;23.110;2024-03-08T09:56:19;96917.88;;;6.97;79.24
39363;BME280;25088;43.238;23.110;2024-03-08T09:58:45;96932.63;;;7.45;77.53
39363;BME280;25088;43.238;23.110;2024-03-08T10:01:39;96929.91;;;7.27;79.10
39363;BME280;25088;43.238;23.110;2024-03-08T10:04:06;96937.75;;;7.16;80.83
39363;BME280;25088;43.238;23.110;2024-03-08T10:06:32;96907.06;;;6.91;79.60
39363;BME280;25088;43.238;23.110;2024-03-08T10:08:57;96923.31;;;7.16;78.77
39363;BME280;25088;43.238;23.110;2024-03-08T10:11:24;96934.13;;;7.22;79.66
39363;BME280;25088;43.238;23.110;2024-03-08T10:13:50;96925.91;;;7.29;79.85
39363;BME280;25088;43.238;23.110;2024-03-08T10:16:16;96934.88;;;7.30;79.90
39363;BME280;25088;43.238;23.110;2024-03-08T10:18:47;96934.63;;;7.13;81.53
39363;BME280;25088;43.238;23.110;2024-03-08T10:21:12;96918.94;;;7.15;81.60
39363;BME280;25088;43.238;23.110;2024-03-08T10:23:40;96933.25;;;7.04;80.10
39363;BME280;25088;43.238;23.110;2024-03-08T10:26:16;96922.28;;;7.17;78.72
39363;BME280;25088;43.238;23.110;2024-03-08T10:28:46;96920.09;;;7.25;80.04
39363;BME280;25088;43.238;23.110;2024-03-08T10:31:15;96930.31;;;7.05;81.71
39363;BME280;25088;43.238;23.110;2024-03-08T10:33:41;96912.69;;;7.14;81.99
39363;BME280;25088;43.238;23.110;2024-03-08T10:36:08;96930.88;;;6.89;81.55
39363;BME280;25088;43.238;23.110;2024-03-08T10:38:38;96932.88;;;7.00;82.96
39363;BME280;25088;43.238;23.110;2024-03-08T10:41:10;96924.59;;;7.13;83.30
39363;BME280;25088;43.238;23.110;2024-03-08T10:44:00;96916.53;;;7.07;82.53
39363;BME280;25088;43.238;23.110;2024-03-08T10:49:17;96903.78;;;7.07;82.23
39363;BME280;25088;43.238;23.110;2024-03-08T10:51:43;96922.31;;;7.10;82.86
39363;BME280;25088;43.238;23.110;2024-03-08T10:54:10;96912.06;;;6.94;84.45
39363;BME280;25088;43.238;23.110;2024-03-08T10:56:37;96910.19;;;7.13;83.25
39363;BME280;25088;43.238;23.110;2024-03-08T10:59:03;96914.09;;;6.98;83.31
39363;BME280;25088;43.238;23.110;2024-03-08T11:01:30;96905.88;;;6.87;83.01
39363;BME280;25088;43.238;23.110;2024-03-08T11:03:56;96891.75;;;6.78;84.08
39363;BME280;25088;43.238;23.110;2024-03-08T11:08:49;96899.78;;;6.91;82.90
39363;BME280;25088;43.238;23.110;2024-03-08T11:13:53;96895.66;;;7.07;83.23
39363;BME280;25088;43.238;23.110;2024-03-08T11:19:00;96894.66;;;7.20;82.57
39363;BME280;25088;43.238;23.110;2024-03-08T11:21:36;96859.13;;;7.03;81.70
39363;BME280;25088;43.238;23.110;2024-03-08T11:24:14;96899.66;;;7.23;82.83
39363;BME280;25088;43.238;23.110;2024-03-08T11:26:41;96894.00;;;7.24;81.53
39363;BME280;25088;43.238;23.110;2024-03-08T11:29:32;96887.06;;;7.29;80.85
39363;BME280;25088;43.238;23.110;2024-03-08T11:32:12;96887.66;;;7.31;80.32
39363;BME280;25088;43.238;23.110;2024-03-08T11:34:43;96879.88;;;7.34;79.84
39363;BME280;25088;43.238;23.110;2024-03-08T11:37:13;96886.63;;;7.32;79.53
39363;BME280;25088;43.238;23.110;2024-03-08T11:39:41;96874.81;;;7.19;79.11
39363;BME280;25088;43.238;23.110;2024-03-08T11:42:11;96893.84;;;7.38;79.88
39363;BME280;25088;43.238;23.110;2024-03-08T11:44:37;96881.63;;;7.47;78.40
39363;BME280;25088;43.238;23.110;2024-03-08T11:47:08;96885.09;;;7.54;77.59
39363;BME280;25088;43.238;23.110;2024-03-08T11:49:35;96890.13;;;7.50;76.49
39363;BME280;25088;43.238;23.110;2024-03-08T11:52:01;96881.81;;;7.64;76.43
39363;BME280;25088;43.238;23.110;2024-03-08T11:54:28;96857.59;;;7.62;74.91
39363;BME280;25088;43.238;23.110;2024-03-08T11:56:56;96890.13;;;7.69;76.04
39363;BME280;25088;43.238;23.110;2024-03-08T11:59:29;96877.38;;;7.69;74.55
39363;BME280;25088;43.238;23.110;2024-03-08T12:02:00;96881.16;;;7.68;75.46
39363;BME280;25088;43.238;23.110;2024-03-08T12:04:27;96853.31;;;7.55;75.76
39363;BME280;25088;43.238;23.110;2024-03-08T12:06:53;96888.19;;;7.58;75.24
39363;BME280;25088;43.238;23.110;2024-03-08T12:09:18;96874.50;;;7.64;76.17
39363;BME280;25088;43.238;23.110;2024-03-08T12:11:47;96850.81;;;7.71;76.00
39363;BME280;25088;43.238;23.110;2024-03-08T12:14:14;96851.75;;;7.47;76.93
39363;BME280;25088;43.238;23.110;2024-03-08T12:16:41;96864.16;;;7.73;74.74
39363;BME280;25088;43.238;23.110;2024-03-08T12:19:08;96875.72;;;7.68;76.75
39363;BME280;25088;43.238;23.110;2024-03-08T12:21:35;96874.19;;;7.72;77.07
39363;BME280;25088;43.238;23.110;2024-03-08T12:24:08;96870.28;;;7.50;78.38
39363;BME280;25088;43.238;23.110;2024-03-08T12:26:35;96882.66;;;7.64;77.32
39363;BME280;25088;43.238;23.110;2024-03-08T12:29:47;96875.41;;;7.58;77.97
39363;BME280;25088;43.238;23.110;2024-03-08T12:32:06;96871.16;;;7.32;79.54
39363;BME280;25088;43.238;23.110;2024-03-08T12:34:32;96879.66;;;7.17;80.69
39363;BME280;25088;43.238;23.110;2024-03-08T12:36:58;96879.88;;;7.34;80.15
39363;BME280;25088;43.238;23.110;2024-03-08T12:39:23;96855.38;;;7.22;79.71
39363;BME280;25088;43.238;23.110;2024-03-08T12:41:53;96882.44;;;7.29;80.22
39363;BME280;25088;43.238;23.110;2024-03-08T12:44:19;96877.63;;;7.31;80.59
39363;BME280;25088;43.238;23.110;2024-03-08T12:46:47;96875.38;;;7.28;80.50
39363;BME280;25088;43.238;23.110;2024-03-08T12:49:13;96872.50;;;7.23;80.11
39363;BME280;25088;43.238;23.110;2024-03-08T12:51:45;96863.69;;;7.28;79.73
39363;BME280;25088;43.238;23.110;2024-03-08T12:54:10;96865.63;;;7.20;79.85
39363;BME280;25088;43.238;23.110;2024-03-08T12:56:36;96862.00;;;7.08;80.04
39363;BME280;25088;43.238;23.110;2024-03-08T12:59:03;96871.56;;;7.11;79.31
39363;BME280;25088;43.238;23.110;2024-03-08T13:01:30;96838.78;;;6.94;80.16
39363;BME280;25088;43.238;23.110;2024-03-08T13:03:57;96869.63;;;7.36;79.67
39363;BME280;25088;43.238;23.110;2024-03-08T13:06:28;96876.09;;;7.35;79.26
39363;BME280;25088;43.238;23.110;2024-03-08T13:08:54;96866.53;;;7.14;78.29
39363;BME280;25088;43.238;23.110;2024-03-08T13:11:21;96874.59;;;7.21;78.66